OAL017 LGAV-LGMK
Flight info
| Callsign | OAL017 |
|---|---|
| Flight time | 0h -24m |
| Altitude | 15000 |
| Route | KEA L995 VARIX |
| Aircraft | A320/M-SDE3FGHIRWY/LB1 |
Departure
| Time | 2026-04-22 08:54 |
|---|---|
| Airport | Athens Eleftherios Venizelos International Airport (LGAV) |
Arrival
| Time | 2026-04-22 08:30 |
|---|---|
| Airport | Mykonos Island National Airport (LGMK) |
| Time | Latitude | Longitude | Altitude | Speed | Heading |
|---|---|---|---|---|---|
| 2026-04-22 08:29 | 37.43543 | 25.34629 | 406 ft | 0 kts | 251° |
| 2026-04-22 08:32 | 37.43546 | 25.34637 | 406 ft | 4 kts | 251° |
| 2026-04-22 08:32 | 37.43554 | 25.34670 | 402 ft | 4 kts | 275° |
| 2026-04-22 08:32 | 37.43544 | 25.34693 | 402 ft | 0 kts | 341° |
| 2026-04-22 08:33 | 37.43601 | 25.34677 | 407 ft | 18 kts | 2° |
| 2026-04-22 08:33 | 37.43776 | 25.34704 | 407 ft | 34 kts | 346° |
| 2026-04-22 08:33 | 37.44013 | 25.34602 | 409 ft | 29 kts | 341° |
| 2026-04-22 08:33 | 37.44169 | 25.34536 | 406 ft | 23 kts | 345° |
| 2026-04-22 08:34 | 37.44252 | 25.34527 | 405 ft | 0 kts | 358° |
| 2026-04-22 08:34 | 37.44276 | 25.34526 | 405 ft | 13 kts | 358° |
| 2026-04-22 08:34 | 37.44298 | 25.34485 | 404 ft | 4 kts | 222° |
| 2026-04-22 08:34 | 37.44271 | 25.34485 | 404 ft | 1 kts | 160° |
| 2026-04-22 08:35 | 37.44200 | 25.34517 | 406 ft | 36 kts | 160° |
| 2026-04-22 08:35 | 37.43726 | 25.34731 | 405 ft | 106 kts | 160° |
| 2026-04-22 08:35 | 37.42858 | 25.35120 | 486 ft | 150 kts | 160° |
| 2026-04-22 08:35 | 37.41847 | 25.35583 | 1029 ft | 157 kts | 158° |
| 2026-04-22 08:36 | 37.40790 | 25.36169 | 1681 ft | 168 kts | 156° |
| 2026-04-22 08:36 | 37.39701 | 25.36805 | 2334 ft | 180 kts | 158° |
| 2026-04-22 08:36 | 37.38455 | 25.37413 | 2745 ft | 208 kts | 165° |
| 2026-04-22 08:36 | 37.36974 | 25.37989 | 2991 ft | 238 kts | 165° |
| 2026-04-22 08:37 | 37.35253 | 25.38379 | 3225 ft | 266 kts | 189° |
| 2026-04-22 08:37 | 37.33566 | 25.37489 | 4109 ft | 263 kts | 224° |
| 2026-04-22 08:37 | 37.32569 | 25.35684 | 5482 ft | 247 kts | 244° |
| 2026-04-22 08:37 | 37.31784 | 25.33719 | 6374 ft | 256 kts | 244° |
| 2026-04-22 08:38 | 37.30977 | 25.31693 | 7320 ft | 261 kts | 244° |
| 2026-04-22 08:38 | 37.30142 | 25.29657 | 8379 ft | 264 kts | 244° |
| 2026-04-22 08:38 | 37.29281 | 25.27603 | 9449 ft | 268 kts | 244° |
| 2026-04-22 08:38 | 37.28401 | 25.25522 | 10441 ft | 274 kts | 244° |
| 2026-04-22 08:39 | 37.27575 | 25.23293 | 10812 ft | 300 kts | 256° |
| 2026-04-22 08:39 | 37.27494 | 25.20591 | 11229 ft | 321 kts | 281° |
| 2026-04-22 08:39 | 37.28360 | 25.17985 | 12143 ft | 328 kts | 301° |
| 2026-04-22 08:39 | 37.29648 | 25.15608 | 13213 ft | 330 kts | 303° |
| 2026-04-22 08:40 | 37.30987 | 25.13245 | 14237 ft | 333 kts | 303° |
| 2026-04-22 08:40 | 37.32329 | 25.10857 | 15193 ft | 336 kts | 303° |
| 2026-04-22 08:40 | 37.33664 | 25.08438 | 15705 ft | 334 kts | 303° |
| 2026-04-22 08:40 | 37.34956 | 25.06073 | 15941 ft | 325 kts | 302° |
| 2026-04-22 08:41 | 37.36207 | 25.03736 | 15957 ft | 320 kts | 299° |
| 2026-04-22 08:41 | 37.37090 | 25.01178 | 15982 ft | 320 kts | 288° |
| 2026-04-22 08:41 | 37.37795 | 24.98516 | 15970 ft | 323 kts | 288° |
| 2026-04-22 08:41 | 37.38502 | 24.95767 | 15979 ft | 336 kts | 287° |
| 2026-04-22 08:42 | 37.39226 | 24.92947 | 15977 ft | 340 kts | 287° |
| 2026-04-22 08:42 | 37.39956 | 24.90128 | 15966 ft | 338 kts | 288° |
| 2026-04-22 08:42 | 37.40688 | 24.87320 | 15971 ft | 337 kts | 288° |
| 2026-04-22 08:42 | 37.41422 | 24.84523 | 15968 ft | 337 kts | 288° |
| 2026-04-22 08:43 | 37.42159 | 24.81722 | 15958 ft | 337 kts | 288° |
| 2026-04-22 08:43 | 37.42894 | 24.78929 | 15961 ft | 336 kts | 288° |
| 2026-04-22 08:43 | 37.43628 | 24.76143 | 15964 ft | 336 kts | 288° |
| 2026-04-22 08:43 | 37.44363 | 24.73352 | 15967 ft | 336 kts | 288° |
| 2026-04-22 08:44 | 37.45099 | 24.70556 | 15965 ft | 336 kts | 288° |
| 2026-04-22 08:44 | 37.45833 | 24.67762 | 15964 ft | 337 kts | 288° |
| 2026-04-22 08:44 | 37.46570 | 24.64958 | 15963 ft | 337 kts | 288° |
| 2026-04-22 08:44 | 37.47305 | 24.62155 | 15961 ft | 337 kts | 288° |
| 2026-04-22 08:45 | 37.48040 | 24.59351 | 15961 ft | 338 kts | 288° |
| 2026-04-22 08:45 | 37.48775 | 24.56544 | 15960 ft | 338 kts | 288° |
| 2026-04-22 08:45 | 37.49510 | 24.53732 | 15960 ft | 338 kts | 288° |
| 2026-04-22 08:45 | 37.50244 | 24.50922 | 15959 ft | 338 kts | 288° |
| 2026-04-22 08:46 | 37.50979 | 24.48106 | 15960 ft | 338 kts | 288° |
| 2026-04-22 08:46 | 37.51702 | 24.45330 | 15959 ft | 338 kts | 288° |
| 2026-04-22 08:46 | 37.52434 | 24.42517 | 15958 ft | 338 kts | 288° |
| 2026-04-22 08:46 | 37.53166 | 24.39706 | 15959 ft | 338 kts | 288° |
| 2026-04-22 08:47 | 37.53896 | 24.36894 | 15953 ft | 338 kts | 288° |
| 2026-04-22 08:47 | 37.54627 | 24.34080 | 15956 ft | 338 kts | 288° |
| 2026-04-22 08:47 | 37.55344 | 24.31299 | 15915 ft | 329 kts | 287° |
| 2026-04-22 08:47 | 37.55692 | 24.28488 | 15699 ft | 320 kts | 272° |
| 2026-04-22 08:48 | 37.55624 | 24.25670 | 15005 ft | 322 kts | 267° |
| 2026-04-22 08:48 | 37.55455 | 24.22870 | 14418 ft | 320 kts | 267° |
| 2026-04-22 08:48 | 37.55297 | 24.20087 | 13872 ft | 317 kts | 267° |
| 2026-04-22 08:48 | 37.55158 | 24.17328 | 13264 ft | 314 kts | 268° |
| 2026-04-22 08:49 | 37.55029 | 24.14588 | 12661 ft | 312 kts | 268° |
| 2026-04-22 08:49 | 37.54904 | 24.11864 | 12083 ft | 310 kts | 268° |
| 2026-04-22 08:49 | 37.54780 | 24.09170 | 11536 ft | 307 kts | 267° |
| 2026-04-22 08:49 | 37.54657 | 24.06493 | 11000 ft | 304 kts | 267° |
| 2026-04-22 08:50 | 37.54534 | 24.03845 | 10474 ft | 302 kts | 267° |
| 2026-04-22 08:50 | 37.54413 | 24.01249 | 10304 ft | 288 kts | 267° |
| 2026-04-22 08:50 | 37.54297 | 23.98781 | 10135 ft | 276 kts | 267° |
| 2026-04-22 08:50 | 37.54185 | 23.96397 | 10017 ft | 268 kts | 267° |
| 2026-04-22 08:51 | 37.54077 | 23.94109 | 9844 ft | 257 kts | 267° |
| 2026-04-22 08:51 | 37.53971 | 23.91860 | 9433 ft | 256 kts | 267° |
| 2026-04-22 08:51 | 37.53865 | 23.89634 | 9106 ft | 252 kts | 267° |
| 2026-04-22 08:51 | 37.53760 | 23.87436 | 8742 ft | 251 kts | 267° |
| 2026-04-22 08:52 | 37.53655 | 23.85253 | 8387 ft | 249 kts | 267° |
| 2026-04-22 08:52 | 37.53550 | 23.83076 | 8008 ft | 248 kts | 268° |
| 2026-04-22 08:52 | 37.53445 | 23.80909 | 7657 ft | 247 kts | 268° |
| 2026-04-22 08:52 | 37.53342 | 23.78784 | 7525 ft | 237 kts | 268° |
| 2026-04-22 08:53 | 37.53594 | 23.76798 | 7382 ft | 227 kts | 295° |
| 2026-04-22 08:53 | 37.54511 | 23.75233 | 7210 ft | 223 kts | 316° |
| 2026-04-22 08:53 | 37.55833 | 23.74212 | 6977 ft | 225 kts | 336° |
| 2026-04-22 08:53 | 37.57378 | 23.73868 | 6712 ft | 227 kts | 352° |
| 2026-04-22 08:54 | 37.58951 | 23.73749 | 6443 ft | 226 kts | 353° |
| 2026-04-22 08:54 | 37.60521 | 23.73634 | 6164 ft | 226 kts | 353° |
| 2026-04-22 08:54 | 37.62087 | 23.73518 | 5882 ft | 225 kts | 353° |
| 2026-04-22 08:54 | 37.63646 | 23.73400 | 5605 ft | 224 kts | 353° |
| 2026-04-22 08:55 | 37.65201 | 23.73281 | 5328 ft | 223 kts | 353° |
| 2026-04-22 08:55 | 37.66750 | 23.73160 | 5055 ft | 223 kts | 353° |
| 2026-04-22 08:55 | 37.68297 | 23.73039 | 4782 ft | 223 kts | 353° |
| 2026-04-22 08:55 | 37.69844 | 23.72919 | 4498 ft | 222 kts | 354° |
| 2026-04-22 08:56 | 37.71368 | 23.72839 | 4213 ft | 223 kts | 2° |
| 2026-04-22 08:56 | 37.72800 | 23.73560 | 4026 ft | 222 kts | 33° |
| 2026-04-22 08:56 | 37.74014 | 23.74706 | 3919 ft | 214 kts | 34° |
| 2026-04-22 08:56 | 37.75191 | 23.75819 | 3816 ft | 210 kts | 34° |
| 2026-04-22 08:57 | 37.76367 | 23.76929 | 3748 ft | 213 kts | 34° |
| 2026-04-22 08:57 | 37.77549 | 23.78043 | 3557 ft | 212 kts | 34° |
| 2026-04-22 08:57 | 37.78720 | 23.79150 | 3337 ft | 207 kts | 34° |
| 2026-04-22 08:57 | 37.79490 | 23.79881 | 3177 ft | 201 kts | 34° |
| 2026-04-22 08:58 | 37.80567 | 23.80903 | 3042 ft | 186 kts | 34° |
| 2026-04-22 08:58 | 37.81574 | 23.81841 | 2907 ft | 175 kts | 32° |
| 2026-04-22 08:58 | 37.82540 | 23.82718 | 2694 ft | 167 kts | 34° |
| 2026-04-22 08:58 | 37.83461 | 23.83584 | 2473 ft | 162 kts | 35° |
| 2026-04-22 08:59 | 37.84346 | 23.84427 | 2247 ft | 158 kts | 35° |
| 2026-04-22 08:59 | 37.85206 | 23.85249 | 2058 ft | 149 kts | 35° |
| 2026-04-22 08:59 | 37.86028 | 23.86034 | 1851 ft | 148 kts | 36° |
| 2026-04-22 08:59 | 37.86843 | 23.86813 | 1654 ft | 146 kts | 36° |
| 2026-04-22 09:00 | 37.87635 | 23.87570 | 1457 ft | 143 kts | 36° |
| 2026-04-22 09:00 | 37.88445 | 23.88345 | 1275 ft | 145 kts | 36° |
| 2026-04-22 09:00 | 37.89233 | 23.89097 | 1078 ft | 142 kts | 37° |
| 2026-04-22 09:00 | 37.90007 | 23.89838 | 888 ft | 138 kts | 37° |
| 2026-04-22 09:01 | 37.90772 | 23.90569 | 719 ft | 138 kts | 38° |
| 2026-04-22 09:01 | 37.91537 | 23.91299 | 522 ft | 137 kts | 38° |
| 2026-04-22 09:01 | 37.92289 | 23.92018 | 347 ft | 134 kts | 37° |
| 2026-04-22 09:01 | 37.92976 | 23.92679 | 292 ft | 100 kts | 36° |
| 2026-04-22 09:02 | 37.93256 | 23.92942 | 292 ft | 13 kts | 38° |
| 2026-04-22 09:02 | 37.93317 | 23.93024 | 288 ft | 13 kts | 76° |
| 2026-04-22 09:02 | 37.93281 | 23.93121 | 293 ft | 12 kts | 126° |
| 2026-04-22 09:02 | 37.93263 | 23.93217 | 297 ft | 12 kts | 61° |
| 2026-04-22 09:03 | 37.93327 | 23.93285 | 300 ft | 12 kts | 36° |
| 2026-04-22 09:03 | 37.93392 | 23.93347 | 298 ft | 12 kts | 36° |
| 2026-04-22 09:03 | 37.93433 | 23.93424 | 299 ft | 11 kts | 96° |
| 2026-04-22 09:03 | 37.93390 | 23.93505 | 299 ft | 11 kts | 126° |
| 2026-04-22 09:04 | 37.93346 | 23.93582 | 301 ft | 11 kts | 126° |
| 2026-04-22 09:04 | 37.93304 | 23.93653 | 300 ft | 10 kts | 127° |
| 2026-04-22 09:04 | 37.93258 | 23.93729 | 300 ft | 12 kts | 127° |
| 2026-04-22 09:04 | 37.93194 | 23.93835 | 301 ft | 19 kts | 127° |
| 2026-04-22 09:05 | 37.93104 | 23.93983 | 302 ft | 14 kts | 127° |
| 2026-04-22 09:05 | 37.93035 | 23.94101 | 302 ft | 20 kts | 128° |
| 2026-04-22 09:05 | 37.92985 | 23.94206 | 300 ft | 15 kts | 86° |
| 2026-04-22 09:05 | 37.93035 | 23.94267 | 302 ft | 2 kts | 37° |
| 2026-04-22 09:06 | 37.93051 | 23.94283 | 300 ft | 0 kts | 37° |